KAPF

Naples Municipal Airport

Naples, Florida, USA
METAR KAPF 181253Z 06005KT 8SM CLR 12/11 A3012 RMK AO2 SLP198 T01170106
Observed Flight Rules
Dec-18 @ 12:53 UTC (33 minutes ago) Visual Flight Rules
Wind Visibility Clouds
60° at 5 knots 8 miles
  • Clear skies
Temperatures Readings
Current 12°C / 54°F
Dewpoint 11°C / 52°F
Humidity 94%
Altimeter 30.12" Hg
Pressure 1019.8 hPa
Elevation 3
METAR KAPF 181253Z 06005KT 8SM CLR 12/11 A3012 RMK AO2 SLP198 T01170106
Observed Flight Rules
Dec-18 @ 12:53 UTC
(33 minutes ago)
VFR
Wind Visibility
60° at 5 knots 8 miles
Clouds
  • Clear skies
Temperature Dewpoint
12°C / 54°F 11°C / 52°F
Humidity Altimeter Pressure
94% 30.12" Hg 1019.8 hPa